Sumisemaru No.5 — JE3162 — position and weather

sailwx.info

Track history (hours):
 
Tides and Currents Weather Stations Pressure Air Temp Water Temp Dewpoint Dewpoint Depression Visibility Wind Speed Wind Dir Waves Ship Positions

Sumisemaru No.5

Last reported at 2015-Jun-30 18:15 UTC. Time now 2015-Jul-04 01:43 UTC.
Position N 36°17' E 141°06'.

Length 96 m; draft 5 m.

Type: Cargo ship. MMSI: 431700423.

Date/timePositionNaut miles runAvg speedWind from/ knotsBaromVisibWave heightAir tempDewpointWater temp
2015-Jun-30 18:15N 36°17' E 141°06'912.4
2015-Jun-30 17:33N 36°09' E 141°04'1212.1
2015-Jun-30 16:33N 35°57' E 141°00'1212.3
2015-Jun-30 15:33N 35°45' E 140°58'1912.5
2015-Jun-30 14:03N 35°28' E 140°47'6112.4
2015-Jun-30 09:09N 34°52' E 139°47'813.6
2015-Jun-30 08:32N 34°59' E 139°42'1313.4
2015-Jun-30 07:33N 35°12' E 139°46'1211.9
2015-Jun-30 06:34N 35°23' E 139°43'1211.5
2015-Jun-30 05:33N 35°33' E 139°50'6 5.6
2015-Jun-30 04:26N 35°38' E 139°46'0 0.0
2015-Jun-30 03:32N 35°38' E 139°46'0 0.0
2015-Jun-30 02:32N 35°38' E 139°46'0 0.0
2015-Jun-30 01:29N 35°38' E 139°46'0 0.0
2015-Jun-30 00:32N 35°38' E 139°46'0 0.0
2015-Jun-29 23:29N 35°38' E 139°45'0 0.0
2015-Jun-29 22:32N 35°38' E 139°45'0 0.0
2015-Jun-29 21:32N 35°38' E 139°45'0 0.0
2015-Jun-29 20:32N 35°38' E 139°46'0 0.0
2015-Jun-29 19:29N 35°38' E 139°45'0 0.0
2015-Jun-29 18:32N 35°38' E 139°45'0 0.0
2015-Jun-29 17:29N 35°38' E 139°45'0 0.0
2015-Jun-29 16:17N 35°38' E 139°45'0 0.1
2015-Jun-29 15:32N 35°38' E 139°46'0 0.0
2015-Jun-29 14:20N 35°38' E 139°46'0 0.1
2015-Jun-29 13:32N 35°38' E 139°45'0 0.0
2015-Jun-29 12:29N 35°38' E 139°45'0 0.0
2015-Jun-29 11:29N 35°38' E 139°45'0 0.0
2015-Jun-29 10:26N 35°38' E 139°46'0 0.0
2015-Jun-29 09:32N 35°38' E 139°46'0 0.1
2015-Jun-29 08:33N 35°38' E 139°46'9 9.4
2015-Jun-29 07:33N 35°30' E 139°52'1110.5
2015-Jun-29 06:34N 35°28' E 139°40'1 1.1
2015-Jun-29 05:31N 35°29' E 139°40'0 0.0
2015-Jun-29 04:31N 35°29' E 139°40'0 0.0
2015-Jun-29 03:31N 35°29' E 139°40'0 0.0
2015-Jun-29 02:31N 35°29' E 139°40'0 0.0
2015-Jun-29 01:31N 35°29' E 139°40'0 0.0
2015-Jun-29 00:31N 35°29' E 139°40'0 0.0
2015-Jun-28 23:31N 35°29' E 139°40'2 2.6
2015-Jun-28 22:34N 35°27' E 139°42'1 0.6
2015-Jun-28 21:31N 35°26' E 139°42'0 0.0
2015-Jun-28 20:31N 35°26' E 139°42'0 0.0
2015-Jun-28 19:31N 35°26' E 139°42'0 0.0
2015-Jun-28 18:31N 35°26' E 139°42'2 1.6
2015-Jun-28 17:33N 35°24' E 139°42'1211.7
2015-Jun-28 16:33N 35°13' E 139°47'1211.7
2015-Jun-28 15:33N 35°03' E 139°42'  
2015-Jun-24 22:15N 34°51' E 139°56'913.0
2015-Jun-24 21:33N 34°55' E 140°06'1313.1
2015-Jun-24 20:33N 35°02' E 140°20'1312.3
2015-Jun-24 19:29N 35°10' E 140°33'1311.4
2015-Jun-24 18:21N 35°21' E 140°41'8412.1
2015-Jun-24 11:25N 36°42' E 141°07'  
Track history (hours):
 
Tides and Currents Weather Stations Pressure Air Temp Water Temp Dewpoint Dewpoint Depression Visibility Wind Speed Wind Dir Waves Ship Positions

Sumisemaru No.5

Last reported at 2015-Jun-30 18:15 UTC. Time now 2015-Jul-04 01:43 UTC.
Position N 36°17' E 141°06'.

Length 96 m; draft 5 m.

Type: Cargo ship. MMSI: 431700423.

Date/timePositionNaut miles runAvg speedWind from/ knotsBaromVisibWave heightAir tempDewpointWater temp
2015-Jun-30 18:15N 36°17' E 141°06'912.4
2015-Jun-30 17:33N 36°09' E 141°04'1212.1
2015-Jun-30 16:33N 35°57' E 141°00'1212.3
2015-Jun-30 15:33N 35°45' E 140°58'1912.5
2015-Jun-30 14:03N 35°28' E 140°47'6112.4
2015-Jun-30 09:09N 34°52' E 139°47'813.6
2015-Jun-30 08:32N 34°59' E 139°42'1313.4
2015-Jun-30 07:33N 35°12' E 139°46'1211.9
2015-Jun-30 06:34N 35°23' E 139°43'1211.5
2015-Jun-30 05:33N 35°33' E 139°50'6 5.6
2015-Jun-30 04:26N 35°38' E 139°46'0 0.0
2015-Jun-30 03:32N 35°38' E 139°46'0 0.0
2015-Jun-30 02:32N 35°38' E 139°46'0 0.0
2015-Jun-30 01:29N 35°38' E 139°46'0 0.0
2015-Jun-30 00:32N 35°38' E 139°46'0 0.0
2015-Jun-29 23:29N 35°38' E 139°45'0 0.0
2015-Jun-29 22:32N 35°38' E 139°45'0 0.0
2015-Jun-29 21:32N 35°38' E 139°45'0 0.0
2015-Jun-29 20:32N 35°38' E 139°46'0 0.0
2015-Jun-29 19:29N 35°38' E 139°45'0 0.0
2015-Jun-29 18:32N 35°38' E 139°45'0 0.0
2015-Jun-29 17:29N 35°38' E 139°45'0 0.0
2015-Jun-29 16:17N 35°38' E 139°45'0 0.1
2015-Jun-29 15:32N 35°38' E 139°46'0 0.0
2015-Jun-29 14:20N 35°38' E 139°46'0 0.1
2015-Jun-29 13:32N 35°38' E 139°45'0 0.0
2015-Jun-29 12:29N 35°38' E 139°45'0 0.0
2015-Jun-29 11:29N 35°38' E 139°45'0 0.0
2015-Jun-29 10:26N 35°38' E 139°46'0 0.0
2015-Jun-29 09:32N 35°38' E 139°46'0 0.1
2015-Jun-29 08:33N 35°38' E 139°46'9 9.4
2015-Jun-29 07:33N 35°30' E 139°52'1110.5
2015-Jun-29 06:34N 35°28' E 139°40'1 1.1
2015-Jun-29 05:31N 35°29' E 139°40'0 0.0
2015-Jun-29 04:31N 35°29' E 139°40'0 0.0
2015-Jun-29 03:31N 35°29' E 139°40'0 0.0
2015-Jun-29 02:31N 35°29' E 139°40'0 0.0
2015-Jun-29 01:31N 35°29' E 139°40'0 0.0
2015-Jun-29 00:31N 35°29' E 139°40'0 0.0
2015-Jun-28 23:31N 35°29' E 139°40'2 2.6
2015-Jun-28 22:34N 35°27' E 139°42'1 0.6
2015-Jun-28 21:31N 35°26' E 139°42'0 0.0
2015-Jun-28 20:31N 35°26' E 139°42'0 0.0
2015-Jun-28 19:31N 35°26' E 139°42'0 0.0
2015-Jun-28 18:31N 35°26' E 139°42'2 1.6
2015-Jun-28 17:33N 35°24' E 139°42'1211.7
2015-Jun-28 16:33N 35°13' E 139°47'1211.7
2015-Jun-28 15:33N 35°03' E 139°42'  
2015-Jun-24 22:15N 34°51' E 139°56'913.0
2015-Jun-24 21:33N 34°55' E 140°06'1313.1
2015-Jun-24 20:33N 35°02' E 140°20'1312.3
2015-Jun-24 19:29N 35°10' E 140°33'1311.4
2015-Jun-24 18:21N 35°21' E 140°41'8412.1
2015-Jun-24 11:25N 36°42' E 141°07'  

Dump ship's entire track history